TAF and METAR

Could not understand the following METAR

YBHI 191500Z AUTO 04006KT 9999 // NCD 23/02 Q1013
No TAF available for Broken Hill Airport
Broken Hill Airport in Australia at 292m

Latest 5 airports